sensor_id;sensor_type;location;lat;lon;timestamp;P1;durP1;ratioP1;P2;durP2;ratioP2
47489;SDS011;33226;56.996;14.584;2022-08-21T00:01:34;2.53;;;0.80;;
47489;SDS011;33226;56.996;14.584;2022-08-21T00:04:04;5.20;;;1.02;;
47489;SDS011;33226;56.996;14.584;2022-08-21T00:06:31;3.20;;;1.15;;
47489;SDS011;33226;56.996;14.584;2022-08-21T00:08:58;4.78;;;1.20;;
47489;SDS011;33226;56.996;14.584;2022-08-21T00:11:24;3.05;;;1.20;;
47489;SDS011;33226;56.996;14.584;2022-08-21T00:13:52;7.05;;;1.15;;
47489;SDS011;33226;56.996;14.584;2022-08-21T00:16:17;3.67;;;1.00;;
47489;SDS011;33226;56.996;14.584;2022-08-21T00:18:43;7.32;;;1.10;;
47489;SDS011;33226;56.996;14.584;2022-08-21T00:21:10;6.72;;;1.40;;
47489;SDS011;33226;56.996;14.584;2022-08-21T00:23:37;3.55;;;1.38;;
47489;SDS011;33226;56.996;14.584;2022-08-21T00:26:03;3.60;;;1.10;;
47489;SDS011;33226;56.996;14.584;2022-08-21T00:28:29;7.10;;;1.30;;
47489;SDS011;33226;56.996;14.584;2022-08-21T00:30:55;7.63;;;1.35;;
47489;SDS011;33226;56.996;14.584;2022-08-21T00:33:21;6.25;;;1.08;;
47489;SDS011;33226;56.996;14.584;2022-08-21T00:35:47;5.55;;;1.23;;
47489;SDS011;33226;56.996;14.584;2022-08-21T00:38:13;6.65;;;1.10;;
47489;SDS011;33226;56.996;14.584;2022-08-21T00:40:44;6.03;;;1.40;;
47489;SDS011;33226;56.996;14.584;2022-08-21T00:43:19;2.63;;;1.20;;
47489;SDS011;33226;56.996;14.584;2022-08-21T00:45:47;7.78;;;1.30;;
47489;SDS011;33226;56.996;14.584;2022-08-21T00:48:13;12.25;;;2.05;;
47489;SDS011;33226;56.996;14.584;2022-08-21T00:50:48;4.90;;;1.70;;
47489;SDS011;33226;56.996;14.584;2022-08-21T00:53:17;5.93;;;1.10;;
47489;SDS011;33226;56.996;14.584;2022-08-21T00:55:44;4.47;;;1.17;;
47489;SDS011;33226;56.996;14.584;2022-08-21T00:58:11;7.15;;;1.30;;
47489;SDS011;33226;56.996;14.584;2022-08-21T01:00:40;4.85;;;1.23;;
47489;SDS011;33226;56.996;14.584;2022-08-21T01:03:09;3.00;;;1.38;;
47489;SDS011;33226;56.996;14.584;2022-08-21T01:05:37;8.10;;;1.40;;
47489;SDS011;33226;56.996;14.584;2022-08-21T01:08:04;5.00;;;1.15;;
47489;SDS011;33226;56.996;14.584;2022-08-21T01:10:30;6.05;;;1.23;;
47489;SDS011;33226;56.996;14.584;2022-08-21T01:12:56;4.93;;;1.23;;
47489;SDS011;33226;56.996;14.584;2022-08-21T01:15:24;6.95;;;1.10;;
47489;SDS011;33226;56.996;14.584;2022-08-21T01:18:01;6.80;;;1.02;;
47489;SDS011;33226;56.996;14.584;2022-08-21T01:20:28;2.17;;;1.10;;
47489;SDS011;33226;56.996;14.584;2022-08-21T01:22:54;5.30;;;1.10;;
47489;SDS011;33226;56.996;14.584;2022-08-21T01:25:21;4.60;;;1.65;;
47489;SDS011;33226;56.996;14.584;2022-08-21T01:27:47;3.78;;;1.08;;
47489;SDS011;33226;56.996;14.584;2022-08-21T01:30:15;4.05;;;1.00;;
47489;SDS011;33226;56.996;14.584;2022-08-21T01:32:42;1.48;;;0.93;;
47489;SDS011;33226;56.996;14.584;2022-08-21T01:35:09;7.32;;;1.33;;
47489;SDS011;33226;56.996;14.584;2022-08-21T01:37:36;6.80;;;1.15;;
47489;SDS011;33226;56.996;14.584;2022-08-21T01:40:03;4.20;;;0.90;;
47489;SDS011;33226;56.996;14.584;2022-08-21T01:42:30;2.88;;;1.25;;
47489;SDS011;33226;56.996;14.584;2022-08-21T01:44:55;6.25;;;1.55;;
47489;SDS011;33226;56.996;14.584;2022-08-21T01:47:21;4.65;;;1.00;;
47489;SDS011;33226;56.996;14.584;2022-08-21T01:49:47;6.43;;;1.63;;
47489;SDS011;33226;56.996;14.584;2022-08-21T01:52:13;10.43;;;1.20;;
47489;SDS011;33226;56.996;14.584;2022-08-21T01:54:39;5.10;;;1.20;;
47489;SDS011;33226;56.996;14.584;2022-08-21T01:57:04;4.22;;;1.15;;
47489;SDS011;33226;56.996;14.584;2022-08-21T01:59:30;7.32;;;1.20;;
47489;SDS011;33226;56.996;14.584;2022-08-21T02:01:56;3.33;;;1.40;;
47489;SDS011;33226;56.996;14.584;2022-08-21T02:04:22;5.38;;;1.33;;
47489;SDS011;33226;56.996;14.584;2022-08-21T02:06:48;3.72;;;1.60;;
47489;SDS011;33226;56.996;14.584;2022-08-21T02:09:14;3.75;;;1.25;;
47489;SDS011;33226;56.996;14.584;2022-08-21T02:11:41;3.97;;;1.20;;
47489;SDS011;33226;56.996;14.584;2022-08-21T02:14:07;3.75;;;1.38;;
47489;SDS011;33226;56.996;14.584;2022-08-21T02:16:33;9.32;;;2.10;;
47489;SDS011;33226;56.996;14.584;2022-08-21T02:18:59;4.20;;;1.20;;
47489;SDS011;33226;56.996;14.584;2022-08-21T02:21:25;5.10;;;1.25;;
47489;SDS011;33226;56.996;14.584;2022-08-21T02:23:50;6.38;;;1.27;;
47489;SDS011;33226;56.996;14.584;2022-08-21T02:26:16;2.72;;;1.00;;
47489;SDS011;33226;56.996;14.584;2022-08-21T02:28:42;5.60;;;1.30;;
47489;SDS011;33226;56.996;14.584;2022-08-21T02:31:08;2.08;;;1.10;;
47489;SDS011;33226;56.996;14.584;2022-08-21T02:33:33;2.55;;;1.30;;
47489;SDS011;33226;56.996;14.584;2022-08-21T02:35:59;3.13;;;1.30;;
47489;SDS011;33226;56.996;14.584;2022-08-21T02:38:28;6.03;;;1.30;;
47489;SDS011;33226;56.996;14.584;2022-08-21T02:40:57;3.63;;;1.13;;
47489;SDS011;33226;56.996;14.584;2022-08-21T02:43:24;10.50;;;1.75;;
47489;SDS011;33226;56.996;14.584;2022-08-21T02:45:52;7.10;;;1.30;;
47489;SDS011;33226;56.996;14.584;2022-08-21T02:48:21;2.45;;;1.33;;
47489;SDS011;33226;56.996;14.584;2022-08-21T02:50:57;3.65;;;1.50;;
47489;SDS011;33226;56.996;14.584;2022-08-21T02:53:25;2.80;;;1.15;;
47489;SDS011;33226;56.996;14.584;2022-08-21T02:55:52;5.80;;;1.40;;
47489;SDS011;33226;56.996;14.584;2022-08-21T02:58:19;3.30;;;1.10;;
47489;SDS011;33226;56.996;14.584;2022-08-21T03:00:48;4.93;;;1.20;;
47489;SDS011;33226;56.996;14.584;2022-08-21T03:03:14;3.03;;;1.13;;
47489;SDS011;33226;56.996;14.584;2022-08-21T03:05:40;3.08;;;1.20;;
47489;SDS011;33226;56.996;14.584;2022-08-21T03:08:08;3.00;;;1.10;;
47489;SDS011;33226;56.996;14.584;2022-08-21T03:10:37;3.38;;;1.05;;
47489;SDS011;33226;56.996;14.584;2022-08-21T03:13:04;2.28;;;1.20;;
47489;SDS011;33226;56.996;14.584;2022-08-21T03:15:30;2.90;;;1.20;;
47489;SDS011;33226;56.996;14.584;2022-08-21T03:17:56;6.50;;;1.30;;
47489;SDS011;33226;56.996;14.584;2022-08-21T03:20:24;3.55;;;1.00;;
47489;SDS011;33226;56.996;14.584;2022-08-21T03:22:52;1.42;;;0.90;;
47489;SDS011;33226;56.996;14.584;2022-08-21T03:25:18;5.03;;;1.20;;
47489;SDS011;33226;56.996;14.584;2022-08-21T03:27:45;3.38;;;1.10;;
47489;SDS011;33226;56.996;14.584;2022-08-21T03:30:12;2.28;;;1.10;;
47489;SDS011;33226;56.996;14.584;2022-08-21T03:32:38;5.90;;;1.20;;
47489;SDS011;33226;56.996;14.584;2022-08-21T03:35:04;2.67;;;1.05;;
47489;SDS011;33226;56.996;14.584;2022-08-21T03:37:30;2.35;;;1.17;;
47489;SDS011;33226;56.996;14.584;2022-08-21T03:39:57;3.38;;;1.05;;
47489;SDS011;33226;56.996;14.584;2022-08-21T03:42:23;3.78;;;1.13;;
47489;SDS011;33226;56.996;14.584;2022-08-21T03:44:48;1.10;;;1.00;;
47489;SDS011;33226;56.996;14.584;2022-08-21T03:47:14;1.00;;;0.80;;
47489;SDS011;33226;56.996;14.584;2022-08-21T03:49:40;3.22;;;1.15;;
47489;SDS011;33226;56.996;14.584;2022-08-21T03:52:06;1.83;;;0.88;;
47489;SDS011;33226;56.996;14.584;2022-08-21T03:54:32;4.28;;;1.30;;
47489;SDS011;33226;56.996;14.584;2022-08-21T03:56:58;2.83;;;0.98;;
47489;SDS011;33226;56.996;14.584;2022-08-21T03:59:24;4.13;;;0.90;;
47489;SDS011;33226;56.996;14.584;2022-08-21T04:01:57;4.10;;;1.05;;
47489;SDS011;33226;56.996;14.584;2022-08-21T04:04:26;2.33;;;1.05;;
47489;SDS011;33226;56.996;14.584;2022-08-21T04:06:53;1.63;;;1.10;;
47489;SDS011;33226;56.996;14.584;2022-08-21T04:09:20;2.70;;;1.10;;
47489;SDS011;33226;56.996;14.584;2022-08-21T04:11:46;4.32;;;1.42;;
47489;SDS011;33226;56.996;14.584;2022-08-21T04:14:13;1.95;;;0.98;;
47489;SDS011;33226;56.996;14.584;2022-08-21T04:16:39;2.65;;;1.13;;
47489;SDS011;33226;56.996;14.584;2022-08-21T04:19:07;3.55;;;1.20;;
47489;SDS011;33226;56.996;14.584;2022-08-21T04:21:33;1.70;;;0.93;;
47489;SDS011;33226;56.996;14.584;2022-08-21T04:24:00;3.13;;;1.00;;
47489;SDS011;33226;56.996;14.584;2022-08-21T04:26:26;2.97;;;0.88;;
47489;SDS011;33226;56.996;14.584;2022-08-21T04:28:51;2.05;;;0.93;;
47489;SDS011;33226;56.996;14.584;2022-08-21T04:31:17;2.85;;;0.90;;
47489;SDS011;33226;56.996;14.584;2022-08-21T04:33:43;7.40;;;1.15;;
47489;SDS011;33226;56.996;14.584;2022-08-21T04:36:10;2.38;;;0.90;;
47489;SDS011;33226;56.996;14.584;2022-08-21T04:38:36;5.95;;;1.10;;
47489;SDS011;33226;56.996;14.584;2022-08-21T04:41:02;2.22;;;0.82;;
47489;SDS011;33226;56.996;14.584;2022-08-21T04:43:30;2.45;;;0.77;;
47489;SDS011;33226;56.996;14.584;2022-08-21T04:45:55;2.35;;;1.02;;
47489;SDS011;33226;56.996;14.584;2022-08-21T04:48:22;2.38;;;1.00;;
47489;SDS011;33226;56.996;14.584;2022-08-21T04:53:30;3.47;;;0.80;;
47489;SDS011;33226;56.996;14.584;2022-08-21T04:58:29;0.82;;;0.68;;
47489;SDS011;33226;56.996;14.584;2022-08-21T05:00:58;1.40;;;0.80;;
47489;SDS011;33226;56.996;14.584;2022-08-21T05:03:25;3.60;;;1.00;;
47489;SDS011;33226;56.996;14.584;2022-08-21T05:05:51;2.22;;;0.70;;
47489;SDS011;33226;56.996;14.584;2022-08-21T05:08:17;2.22;;;0.80;;
47489;SDS011;33226;56.996;14.584;2022-08-21T05:10:46;3.60;;;1.00;;
47489;SDS011;33226;56.996;14.584;2022-08-21T05:13:12;4.63;;;1.00;;
47489;SDS011;33226;56.996;14.584;2022-08-21T05:15:39;2.97;;;0.90;;
47489;SDS011;33226;56.996;14.584;2022-08-21T05:18:05;3.83;;;0.95;;
47489;SDS011;33226;56.996;14.584;2022-08-21T05:20:31;4.10;;;1.10;;
47489;SDS011;33226;56.996;14.584;2022-08-21T05:22:59;5.63;;;1.00;;
47489;SDS011;33226;56.996;14.584;2022-08-21T05:25:25;2.25;;;0.85;;
47489;SDS011;33226;56.996;14.584;2022-08-21T05:27:51;1.33;;;0.90;;
47489;SDS011;33226;56.996;14.584;2022-08-21T05:30:18;3.67;;;1.05;;
47489;SDS011;33226;56.996;14.584;2022-08-21T05:32:45;4.47;;;1.10;;
47489;SDS011;33226;56.996;14.584;2022-08-21T05:35:11;7.50;;;1.00;;
47489;SDS011;33226;56.996;14.584;2022-08-21T05:37:37;3.28;;;0.90;;
47489;SDS011;33226;56.996;14.584;2022-08-21T05:40:02;1.67;;;0.82;;
47489;SDS011;33226;56.996;14.584;2022-08-21T05:42:29;2.92;;;0.80;;
47489;SDS011;33226;56.996;14.584;2022-08-21T05:44:55;3.40;;;0.77;;
47489;SDS011;33226;56.996;14.584;2022-08-21T05:47:21;9.38;;;1.10;;
47489;SDS011;33226;56.996;14.584;2022-08-21T05:49:46;2.05;;;0.70;;
47489;SDS011;33226;56.996;14.584;2022-08-21T05:52:17;7.32;;;1.10;;
47489;SDS011;33226;56.996;14.584;2022-08-21T05:54:44;2.58;;;0.70;;
47489;SDS011;33226;56.996;14.584;2022-08-21T05:57:09;3.80;;;1.10;;
47489;SDS011;33226;56.996;14.584;2022-08-21T05:59:35;2.22;;;0.85;;
47489;SDS011;33226;56.996;14.584;2022-08-21T06:02:01;2.20;;;0.70;;
47489;SDS011;33226;56.996;14.584;2022-08-21T06:04:27;2.10;;;0.70;;
47489;SDS011;33226;56.996;14.584;2022-08-21T06:06:52;4.32;;;0.70;;
47489;SDS011;33226;56.996;14.584;2022-08-21T06:09:18;2.65;;;0.73;;
47489;SDS011;33226;56.996;14.584;2022-08-21T06:11:44;3.38;;;0.73;;
47489;SDS011;33226;56.996;14.584;2022-08-21T06:14:09;3.38;;;0.80;;
47489;SDS011;33226;56.996;14.584;2022-08-21T06:16:38;2.22;;;0.82;;
47489;SDS011;33226;56.996;14.584;2022-08-21T06:19:03;2.92;;;0.88;;
47489;SDS011;33226;56.996;14.584;2022-08-21T06:21:29;3.55;;;1.00;;
47489;SDS011;33226;56.996;14.584;2022-08-21T06:23:55;2.63;;;0.80;;
47489;SDS011;33226;56.996;14.584;2022-08-21T06:26:20;1.27;;;0.85;;
47489;SDS011;33226;56.996;14.584;2022-08-21T06:28:47;1.92;;;0.63;;
47489;SDS011;33226;56.996;14.584;2022-08-21T06:31:14;2.20;;;0.70;;
47489;SDS011;33226;56.996;14.584;2022-08-21T06:33:44;4.32;;;0.90;;
47489;SDS011;33226;56.996;14.584;2022-08-21T06:36:10;2.65;;;0.68;;
47489;SDS011;33226;56.996;14.584;2022-08-21T06:38:36;4.25;;;0.77;;
47489;SDS011;33226;56.996;14.584;2022-08-21T06:41:02;4.50;;;0.88;;
47489;SDS011;33226;56.996;14.584;2022-08-21T06:43:28;1.73;;;0.70;;
47489;SDS011;33226;56.996;14.584;2022-08-21T06:45:54;2.55;;;0.70;;
47489;SDS011;33226;56.996;14.584;2022-08-21T06:48:20;2.80;;;0.80;;
47489;SDS011;33226;56.996;14.584;2022-08-21T06:50:46;2.35;;;0.70;;
47489;SDS011;33226;56.996;14.584;2022-08-21T06:53:14;3.70;;;0.80;;
47489;SDS011;33226;56.996;14.584;2022-08-21T06:55:43;2.42;;;0.82;;
47489;SDS011;33226;56.996;14.584;2022-08-21T06:58:09;3.40;;;0.65;;
47489;SDS011;33226;56.996;14.584;2022-08-21T07:00:36;3.20;;;0.70;;
47489;SDS011;33226;56.996;14.584;2022-08-21T07:03:04;4.22;;;0.90;;
47489;SDS011;33226;56.996;14.584;2022-08-21T07:05:30;4.43;;;1.33;;
47489;SDS011;33226;56.996;14.584;2022-08-21T07:07:56;3.83;;;0.80;;
47489;SDS011;33226;56.996;14.584;2022-08-21T07:10:23;4.97;;;1.30;;
47489;SDS011;33226;56.996;14.584;2022-08-21T07:12:49;2.85;;;0.70;;
47489;SDS011;33226;56.996;14.584;2022-08-21T07:15:15;2.53;;;0.65;;
47489;SDS011;33226;56.996;14.584;2022-08-21T07:17:41;2.45;;;0.65;;
47489;SDS011;33226;56.996;14.584;2022-08-21T07:20:07;2.67;;;0.80;;
47489;SDS011;33226;56.996;14.584;2022-08-21T07:22:35;2.92;;;1.08;;
47489;SDS011;33226;56.996;14.584;2022-08-21T07:25:00;4.35;;;0.80;;
47489;SDS011;33226;56.996;14.584;2022-08-21T07:27:26;3.78;;;0.90;;
47489;SDS011;33226;56.996;14.584;2022-08-21T07:29:52;3.58;;;0.73;;
47489;SDS011;33226;56.996;14.584;2022-08-21T07:32:18;4.85;;;1.15;;
47489;SDS011;33226;56.996;14.584;2022-08-21T07:34:43;2.60;;;0.68;;
47489;SDS011;33226;56.996;14.584;2022-08-21T07:37:09;4.90;;;0.80;;
47489;SDS011;33226;56.996;14.584;2022-08-21T07:39:35;3.55;;;0.93;;
47489;SDS011;33226;56.996;14.584;2022-08-21T07:42:01;4.00;;;1.13;;
47489;SDS011;33226;56.996;14.584;2022-08-21T07:44:28;2.42;;;0.73;;
47489;SDS011;33226;56.996;14.584;2022-08-21T07:46:54;3.35;;;0.85;;
47489;SDS011;33226;56.996;14.584;2022-08-21T07:49:19;4.30;;;0.82;;
47489;SDS011;33226;56.996;14.584;2022-08-21T07:51:45;2.50;;;0.80;;
47489;SDS011;33226;56.996;14.584;2022-08-21T07:54:11;4.53;;;0.93;;
47489;SDS011;33226;56.996;14.584;2022-08-21T07:56:37;4.15;;;0.98;;
47489;SDS011;33226;56.996;14.584;2022-08-21T07:59:02;6.18;;;0.85;;
47489;SDS011;33226;56.996;14.584;2022-08-21T08:01:28;5.35;;;1.08;;
47489;SDS011;33226;56.996;14.584;2022-08-21T08:03:55;4.90;;;1.13;;
47489;SDS011;33226;56.996;14.584;2022-08-21T08:06:21;2.78;;;0.95;;
47489;SDS011;33226;56.996;14.584;2022-08-21T08:08:48;3.80;;;1.00;;
47489;SDS011;33226;56.996;14.584;2022-08-21T08:11:13;6.50;;;0.80;;
47489;SDS011;33226;56.996;14.584;2022-08-21T08:13:42;4.40;;;1.20;;
47489;SDS011;33226;56.996;14.584;2022-08-21T08:16:12;2.58;;;0.88;;
47489;SDS011;33226;56.996;14.584;2022-08-21T08:18:39;4.97;;;0.93;;
47489;SDS011;33226;56.996;14.584;2022-08-21T08:21:06;2.90;;;1.00;;
47489;SDS011;33226;56.996;14.584;2022-08-21T08:23:32;4.20;;;0.93;;
47489;SDS011;33226;56.996;14.584;2022-08-21T08:25:58;4.82;;;1.15;;
47489;SDS011;33226;56.996;14.584;2022-08-21T08:28:24;4.40;;;1.00;;
47489;SDS011;33226;56.996;14.584;2022-08-21T08:30:50;4.35;;;0.88;;
47489;SDS011;33226;56.996;14.584;2022-08-21T08:33:16;5.70;;;1.15;;
47489;SDS011;33226;56.996;14.584;2022-08-21T08:35:42;3.67;;;1.20;;
47489;SDS011;33226;56.996;14.584;2022-08-21T08:38:11;6.78;;;1.48;;
47489;SDS011;33226;56.996;14.584;2022-08-21T08:40:43;3.38;;;1.10;;
47489;SDS011;33226;56.996;14.584;2022-08-21T08:43:28;3.85;;;1.00;;
47489;SDS011;33226;56.996;14.584;2022-08-21T08:45:55;4.35;;;0.85;;
47489;SDS011;33226;56.996;14.584;2022-08-21T08:48:41;7.47;;;0.98;;
47489;SDS011;33226;56.996;14.584;2022-08-21T08:51:39;4.53;;;1.02;;
47489;SDS011;33226;56.996;14.584;2022-08-21T08:54:31;4.32;;;1.20;;
47489;SDS011;33226;56.996;14.584;2022-08-21T08:57:05;4.07;;;0.90;;
47489;SDS011;33226;56.996;14.584;2022-08-21T08:59:39;5.97;;;1.88;;
47489;SDS011;33226;56.996;14.584;2022-08-21T09:02:07;2.53;;;1.20;;
47489;SDS011;33226;56.996;14.584;2022-08-21T09:04:39;2.15;;;1.15;;
47489;SDS011;33226;56.996;14.584;2022-08-21T09:12:17;3.05;;;1.00;;
47489;SDS011;33226;56.996;14.584;2022-08-21T09:15:28;2.97;;;0.90;;
47489;SDS011;33226;56.996;14.584;2022-08-21T09:26:57;1.77;;;0.70;;
47489;SDS011;33226;56.996;14.584;2022-08-21T09:29:33;2.65;;;1.00;;
47489;SDS011;33226;56.996;14.584;2022-08-21T09:32:16;3.83;;;1.20;;
47489;SDS011;33226;56.996;14.584;2022-08-21T09:34:54;3.95;;;0.98;;
47489;SDS011;33226;56.996;14.584;2022-08-21T09:38:00;3.97;;;1.13;;
47489;SDS011;33226;56.996;14.584;2022-08-21T09:43:23;5.88;;;0.90;;
47489;SDS011;33226;56.996;14.584;2022-08-21T09:46:01;2.60;;;1.00;;
47489;SDS011;33226;56.996;14.584;2022-08-21T09:48:38;4.85;;;0.80;;
47489;SDS011;33226;56.996;14.584;2022-08-21T09:51:13;3.22;;;0.77;;
47489;SDS011;33226;56.996;14.584;2022-08-21T09:53:43;3.83;;;0.90;;
47489;SDS011;33226;56.996;14.584;2022-08-21T09:56:28;4.60;;;1.00;;
47489;SDS011;33226;56.996;14.584;2022-08-21T10:01:47;6.00;;;1.10;;
47489;SDS011;33226;56.996;14.584;2022-08-21T10:04:19;4.28;;;1.27;;
47489;SDS011;33226;56.996;14.584;2022-08-21T10:06:46;3.80;;;1.25;;
47489;SDS011;33226;56.996;14.584;2022-08-21T10:09:17;5.78;;;1.10;;
47489;SDS011;33226;56.996;14.584;2022-08-21T10:11:49;2.13;;;0.80;;
47489;SDS011;33226;56.996;14.584;2022-08-21T10:17:05;4.57;;;0.95;;
47489;SDS011;33226;56.996;14.584;2022-08-21T10:25:10;2.85;;;0.90;;
47489;SDS011;33226;56.996;14.584;2022-08-21T10:33:19;3.13;;;1.00;;
47489;SDS011;33226;56.996;14.584;2022-08-21T10:53:01;2.15;;;0.82;;
47489;SDS011;33226;56.996;14.584;2022-08-21T10:55:51;3.35;;;1.00;;
47489;SDS011;33226;56.996;14.584;2022-08-21T10:58:25;3.95;;;1.02;;
47489;SDS011;33226;56.996;14.584;2022-08-21T11:01:03;3.67;;;1.20;;
47489;SDS011;33226;56.996;14.584;2022-08-21T11:03:39;2.65;;;0.85;;
47489;SDS011;33226;56.996;14.584;2022-08-21T11:06:18;2.15;;;0.75;;
47489;SDS011;33226;56.996;14.584;2022-08-21T11:08:51;1.98;;;0.85;;
47489;SDS011;33226;56.996;14.584;2022-08-21T11:14:17;2.40;;;0.70;;
47489;SDS011;33226;56.996;14.584;2022-08-21T11:17:08;2.95;;;1.08;;
47489;SDS011;33226;56.996;14.584;2022-08-21T11:22:23;1.65;;;0.90;;
47489;SDS011;33226;56.996;14.584;2022-08-21T11:27:26;3.97;;;1.00;;
47489;SDS011;33226;56.996;14.584;2022-08-21T11:30:00;3.13;;;1.00;;
47489;SDS011;33226;56.996;14.584;2022-08-21T11:46:17;3.22;;;0.90;;
47489;SDS011;33226;56.996;14.584;2022-08-21T11:51:28;3.75;;;1.40;;
47489;SDS011;33226;56.996;14.584;2022-08-21T11:56:44;2.78;;;1.00;;
47489;SDS011;33226;56.996;14.584;2022-08-21T11:59:35;3.05;;;1.02;;
47489;SDS011;33226;56.996;14.584;2022-08-21T12:02:15;5.40;;;1.30;;
47489;SDS011;33226;56.996;14.584;2022-08-21T12:04:46;3.80;;;1.17;;
47489;SDS011;33226;56.996;14.584;2022-08-21T12:09:58;5.30;;;1.10;;
47489;SDS011;33226;56.996;14.584;2022-08-21T12:12:27;4.97;;;1.50;;
47489;SDS011;33226;56.996;14.584;2022-08-21T12:20:40;4.18;;;1.23;;
47489;SDS011;33226;56.996;14.584;2022-08-21T12:25:37;5.07;;;1.20;;
47489;SDS011;33226;56.996;14.584;2022-08-21T12:28:07;5.22;;;1.30;;
47489;SDS011;33226;56.996;14.584;2022-08-21T12:30:36;7.38;;;1.63;;
47489;SDS011;33226;56.996;14.584;2022-08-21T12:33:05;3.42;;;1.02;;
47489;SDS011;33226;56.996;14.584;2022-08-21T12:35:52;3.70;;;1.40;;
47489;SDS011;33226;56.996;14.584;2022-08-21T12:38:29;2.88;;;1.42;;
47489;SDS011;33226;56.996;14.584;2022-08-21T12:41:06;2.67;;;1.02;;
47489;SDS011;33226;56.996;14.584;2022-08-21T12:43:38;2.85;;;1.00;;
47489;SDS011;33226;56.996;14.584;2022-08-21T12:46:13;4.60;;;1.10;;
47489;SDS011;33226;56.996;14.584;2022-08-21T12:48:58;5.25;;;0.98;;
47489;SDS011;33226;56.996;14.584;2022-08-21T12:51:32;2.50;;;0.98;;
47489;SDS011;33226;56.996;14.584;2022-08-21T12:54:07;4.28;;;1.10;;
47489;SDS011;33226;56.996;14.584;2022-08-21T12:56:33;2.17;;;0.90;;
47489;SDS011;33226;56.996;14.584;2022-08-21T12:59:03;5.10;;;0.88;;
47489;SDS011;33226;56.996;14.584;2022-08-21T13:01:45;2.22;;;0.93;;
47489;SDS011;33226;56.996;14.584;2022-08-21T13:04:15;3.47;;;1.08;;
47489;SDS011;33226;56.996;14.584;2022-08-21T13:06:47;6.70;;;1.20;;
47489;SDS011;33226;56.996;14.584;2022-08-21T13:09:16;2.85;;;1.00;;
47489;SDS011;33226;56.996;14.584;2022-08-21T13:11:48;2.92;;;0.85;;
47489;SDS011;33226;56.996;14.584;2022-08-21T13:14:36;4.30;;;1.00;;
47489;SDS011;33226;56.996;14.584;2022-08-21T13:17:03;5.32;;;1.00;;
47489;SDS011;33226;56.996;14.584;2022-08-21T13:19:30;2.88;;;0.90;;
47489;SDS011;33226;56.996;14.584;2022-08-21T13:21:57;3.47;;;1.00;;
47489;SDS011;33226;56.996;14.584;2022-08-21T13:24:30;5.60;;;0.90;;
47489;SDS011;33226;56.996;14.584;2022-08-21T13:26:59;4.35;;;1.27;;
47489;SDS011;33226;56.996;14.584;2022-08-21T13:29:29;3.05;;;0.70;;
47489;SDS011;33226;56.996;14.584;2022-08-21T13:32:00;2.33;;;0.75;;
47489;SDS011;33226;56.996;14.584;2022-08-21T13:34:33;6.05;;;0.88;;
47489;SDS011;33226;56.996;14.584;2022-08-21T13:37:02;2.78;;;0.90;;
47489;SDS011;33226;56.996;14.584;2022-08-21T13:39:30;1.50;;;0.80;;
47489;SDS011;33226;56.996;14.584;2022-08-21T13:41:58;2.28;;;0.80;;
47489;SDS011;33226;56.996;14.584;2022-08-21T13:44:41;2.38;;;0.90;;
47489;SDS011;33226;56.996;14.584;2022-08-21T13:47:09;4.38;;;1.00;;
47489;SDS011;33226;56.996;14.584;2022-08-21T13:49:39;2.80;;;0.95;;
47489;SDS011;33226;56.996;14.584;2022-08-21T13:52:15;4.20;;;1.00;;
47489;SDS011;33226;56.996;14.584;2022-08-21T13:54:59;3.55;;;1.02;;
47489;SDS011;33226;56.996;14.584;2022-08-21T13:57:33;2.03;;;0.90;;
47489;SDS011;33226;56.996;14.584;2022-08-21T14:00:16;4.97;;;0.77;;
47489;SDS011;33226;56.996;14.584;2022-08-21T14:02:46;3.03;;;1.02;;
47489;SDS011;33226;56.996;14.584;2022-08-21T14:05:16;1.48;;;0.75;;
47489;SDS011;33226;56.996;14.584;2022-08-21T14:07:45;2.13;;;0.80;;
47489;SDS011;33226;56.996;14.584;2022-08-21T14:10:13;2.55;;;0.75;;
47489;SDS011;33226;56.996;14.584;2022-08-21T14:12:53;2.10;;;1.02;;
47489;SDS011;33226;56.996;14.584;2022-08-21T14:15:23;1.58;;;0.70;;
47489;SDS011;33226;56.996;14.584;2022-08-21T14:17:53;2.08;;;1.00;;
47489;SDS011;33226;56.996;14.584;2022-08-21T14:20:30;2.47;;;0.88;;
47489;SDS011;33226;56.996;14.584;2022-08-21T14:22:58;1.63;;;0.70;;
47489;SDS011;33226;56.996;14.584;2022-08-21T14:32:47;3.55;;;0.80;;
47489;SDS011;33226;56.996;14.584;2022-08-21T14:35:13;3.22;;;0.90;;
47489;SDS011;33226;56.996;14.584;2022-08-21T14:37:42;2.38;;;1.00;;
47489;SDS011;33226;56.996;14.584;2022-08-21T14:40:09;3.30;;;0.88;;
47489;SDS011;33226;56.996;14.584;2022-08-21T14:42:36;1.42;;;0.77;;
47489;SDS011;33226;56.996;14.584;2022-08-21T14:45:05;2.55;;;0.70;;
47489;SDS011;33226;56.996;14.584;2022-08-21T14:47:50;2.05;;;0.70;;
47489;SDS011;33226;56.996;14.584;2022-08-21T14:50:16;2.20;;;0.70;;
47489;SDS011;33226;56.996;14.584;2022-08-21T14:52:42;1.25;;;0.70;;
47489;SDS011;33226;56.996;14.584;2022-08-21T14:55:11;3.90;;;0.88;;
47489;SDS011;33226;56.996;14.584;2022-08-21T14:57:50;2.33;;;0.90;;
47489;SDS011;33226;56.996;14.584;2022-08-21T15:00:18;1.77;;;0.90;;
47489;SDS011;33226;56.996;14.584;2022-08-21T15:02:48;2.67;;;0.90;;
47489;SDS011;33226;56.996;14.584;2022-08-21T15:05:15;2.58;;;0.93;;
47489;SDS011;33226;56.996;14.584;2022-08-21T15:07:41;5.35;;;1.13;;
47489;SDS011;33226;56.996;14.584;2022-08-21T15:10:07;4.90;;;1.08;;
47489;SDS011;33226;56.996;14.584;2022-08-21T15:12:33;6.53;;;2.88;;
47489;SDS011;33226;56.996;14.584;2022-08-21T15:14:59;2.55;;;1.40;;
47489;SDS011;33226;56.996;14.584;2022-08-21T15:17:25;5.13;;;3.50;;
47489;SDS011;33226;56.996;14.584;2022-08-21T15:19:51;3.28;;;2.08;;
47489;SDS011;33226;56.996;14.584;2022-08-21T15:22:17;3.63;;;2.00;;
47489;SDS011;33226;56.996;14.584;2022-08-21T15:24:42;4.00;;;2.30;;
47489;SDS011;33226;56.996;14.584;2022-08-21T15:27:08;5.35;;;4.05;;
47489;SDS011;33226;56.996;14.584;2022-08-21T15:29:35;4.90;;;3.22;;
47489;SDS011;33226;56.996;14.584;2022-08-21T15:32:23;9.40;;;5.93;;
47489;SDS011;33226;56.996;14.584;2022-08-21T15:34:53;5.47;;;2.50;;
47489;SDS011;33226;56.996;14.584;2022-08-21T15:37:19;3.28;;;1.52;;
47489;SDS011;33226;56.996;14.584;2022-08-21T15:39:46;4.30;;;1.63;;
47489;SDS011;33226;56.996;14.584;2022-08-21T15:42:13;3.15;;;1.30;;
47489;SDS011;33226;56.996;14.584;2022-08-21T15:44:39;4.22;;;1.60;;
47489;SDS011;33226;56.996;14.584;2022-08-21T15:47:08;3.08;;;1.33;;
47489;SDS011;33226;56.996;14.584;2022-08-21T15:49:37;4.13;;;1.10;;
47489;SDS011;33226;56.996;14.584;2022-08-21T15:52:03;2.17;;;1.00;;
47489;SDS011;33226;56.996;14.584;2022-08-21T15:54:28;3.65;;;1.10;;
47489;SDS011;33226;56.996;14.584;2022-08-21T15:56:54;4.53;;;1.30;;
47489;SDS011;33226;56.996;14.584;2022-08-21T15:59:20;6.35;;;1.42;;
47489;SDS011;33226;56.996;14.584;2022-08-21T16:01:48;3.25;;;1.05;;
47489;SDS011;33226;56.996;14.584;2022-08-21T16:04:23;4.05;;;1.00;;
47489;SDS011;33226;56.996;14.584;2022-08-21T16:06:52;3.22;;;1.30;;
47489;SDS011;33226;56.996;14.584;2022-08-21T16:09:18;2.05;;;1.00;;
47489;SDS011;33226;56.996;14.584;2022-08-21T16:11:44;4.40;;;0.95;;
47489;SDS011;33226;56.996;14.584;2022-08-21T16:14:11;3.95;;;1.30;;
47489;SDS011;33226;56.996;14.584;2022-08-21T16:16:39;2.47;;;0.93;;
47489;SDS011;33226;56.996;14.584;2022-08-21T16:19:04;6.05;;;1.33;;
47489;SDS011;33226;56.996;14.584;2022-08-21T16:21:31;4.40;;;1.65;;
47489;SDS011;33226;56.996;14.584;2022-08-21T16:23:57;3.15;;;1.40;;
47489;SDS011;33226;56.996;14.584;2022-08-21T16:26:23;3.70;;;2.20;;